Thursday, December 18, 2014
00:41 UTC
  |  Log In   |  Register Free
Airport Search:

Hobart Regional Airport
(KHBR)

Hobart Regional Airport Diagram
No Airport Diagram Available

FAA data valid effective November 13, 2014 - January 08, 2015 (unless otherwise noted).

 
 
 
 
 
 
 
 
 
 
 
 
 
 

Current Aviation Weather for Hobart Regional Airport (KHBR)

The most recent METAR observation for KHBR was updated at: 0021
METAR Summary (Translated METAR)
KHBR
172353Z AUTO 14009KT 4SM BR OVC005 03/03 A3008 RMK AO2 RAE43 SLP193 P0001 60001 T00330028 10050 20028 58002
KCSM
172353Z 16009KT 6SM BR OVC004 03/02 A3008 RMK AO2 SLP194 60004 T00330017 10050 20033 53001
(22.2 nm NW from KHBR)
KAXS
172355Z AUTO 12007KT 2 1/2SM BR OVC005 04/03 A3010 RMK AO2 T00410031 10056 20038
(22.5 nm SW from KHBR)
TAF Summary (Translated TAF)
KHBR
171743Z 1718/1818 14015KT P6SM OVC050 TEMPO 1718/1722 5SM -RA OVC040 FM172300 15013KT P6SM OVC015 FM180300 14010KT 4SM -DZ BR OVC009
KCSM
(22.2 nm NW from KHBR)
171743Z 1718/1818 13015KT P6SM OVC050 TEMPO 1718/1722 5SM -RA OVC040 FM172300 15013KT P6SM OVC015 FM180300 14010KT 4SM -DZ BR OVC009
  Airport Weather Conditions for KHBR

 Current Weather at HBR
37° F
Light Rain Fog/Mist
Southeast winds at 8.1 mph
HBR NOAA Radar

Pressure: 30.09 in
Humidity: 100%
Wind: Southeast at 8.1 MPH (7 KT)
Dew Point: 37.0°F
Visibility: 3.00 mi


Airport Weather Forecast for KHBR

Translated METAR and TAF for KHBR
Translated METAR for KHBR (0042 UTC 18 December 2014)
found at http://aviationweather.gov/adds/metars/
 
METAR text: KHBR 172353Z AUTO 14009KT 4SM BR OVC005 03/03 A3008 RMK AO2 RAE43 SLP193 P0001 60001 T00330028 10050 20028 58002
Conditions at: KHBR (HOBART , OK, US) observed 2353 UTC 17 December 2014
Temperature: 3.3°C (38°F)
Dewpoint: 2.8°C (37°F) [RH = 97%]
Pressure (altimeter): 30.08 inches Hg (1018.7 mb)
[Sea-level pressure: 1019.3 mb]
Winds: from the SE (140 degrees) at 10 MPH (9 knots; 4.7 m/s)
Visibility: 4 miles (6 km)
Ceiling: 500 feet AGL
Clouds: overcast cloud deck at 500 feet AGL
Weather: BR  (mist)
Translated TAF for KHBR
Forecast for: KHBR (HOBART , OK, US)
TAF Text: KHBR 172334Z 1800/1824 15009KT 2SM BR OVC005
Forecast period: 0000 to 0400 UTC 18 December 2014
Forecast type: FROM: standard forecast or significant change
Winds: from the SSE (150 degrees) at 10 MPH (9 knots; 4.7 m/s)
Visibility: 2.00 miles (3.22 km)
Ceiling: 500 feet AGL
Clouds: overcast cloud deck at 500 feet AGL
Weather: BR  (mist)
TAF Text: FM180400 14007KT 2SM -DZ BR OVC003
Forecast period: 0400 to 1800 UTC 18 December 2014
Forecast type: FROM: standard forecast or significant change
Winds: from the SE (140 degrees) at 8 MPH (7 knots; 3.6 m/s)
Visibility: 2.00 miles (3.22 km)
Ceiling: 300 feet AGL
Clouds: overcast cloud deck at 300 feet AGL
Weather: -DZ BR  (light drizzle, mist)
TAF Text: FM181800 02007KT 4SM BR OVC012
Forecast period: 1800 UTC 18 December 2014 to 0000 UTC 19 December 2014
Forecast type: FROM: standard forecast or significant change
Winds: from the NNE (20 degrees) at 8 MPH (7 knots; 3.6 m/s)
Visibility: 4 miles (6 km)
Ceiling: 1200 feet AGL
Clouds: overcast cloud deck at 1200 feet AGL
Weather: BR  (mist)

Find All Airport Services Find A Hotel Find A Rental Car Find A Golf Course Find A Restaurant $100 Hamburger



FBO's on the Field
FBO Company Facility Photos Services Transportation Aviation Fuel Prices: Prices include tax
Catering Weather Repair Courtesy Rental Type 100LL JetA JetA+ MOGAS 8087
 
City of Hobart

Currently rated 2.8 by 1 person
FS:Phillips 66
Last Updated: Nov-24
Login to update fuel prices
SS:
Contact City of HobartMore FBO Information
 
Add another FBO Facility Photos Catering Weather Repair Courtesy Rental Type 100LL JetA JetA+ MOGAS 8087
Services Transportation Aviation Fuel Prices: Prices include tax


model-print
model-print
model-print
model-print